createdAt,value
2018-04-15T00:02:12.893Z,2.43
2018-04-15T00:04:40.151Z,2.37
2018-04-15T00:07:07.201Z,2.30
2018-04-15T00:09:34.256Z,2.20
2018-04-15T00:12:01.295Z,2.50
2018-04-15T00:14:28.345Z,2.33
2018-04-15T00:16:57.482Z,2.07
2018-04-15T00:19:24.487Z,2.33
2018-04-15T00:21:51.599Z,2.13
2018-04-15T00:24:18.599Z,2.20
2018-04-15T00:26:45.634Z,2.10
2018-04-15T00:29:12.689Z,2.20
2018-04-15T00:31:40.038Z,2.27
2018-04-15T00:34:08.110Z,2.00
2018-04-15T00:36:35.159Z,2.40
2018-04-15T00:39:03.232Z,2.00
2018-04-15T00:41:30.286Z,1.90
2018-04-15T00:43:57.328Z,1.80
2018-04-15T00:46:24.378Z,1.70
2018-04-15T00:48:51.431Z,1.80
2018-04-15T00:51:19.504Z,2.00
2018-04-15T00:53:52.588Z,1.83
2018-04-15T00:56:19.642Z,1.93
2018-04-15T00:58:46.911Z,1.73
2018-04-15T01:01:13.945Z,1.60
2018-04-15T01:03:40.988Z,1.60
2018-04-15T01:06:08.037Z,1.70
2018-04-15T01:08:35.291Z,1.87
2018-04-15T01:11:02.858Z,2.00
2018-04-15T01:13:29.899Z,1.80
2018-04-15T01:15:56.948Z,1.83
2018-04-15T01:18:24.407Z,1.47
2018-04-15T01:20:51.461Z,1.60
2018-04-15T01:23:18.405Z,1.90
2018-04-15T01:25:45.454Z,1.93
2018-04-15T01:28:12.498Z,1.80
2018-04-15T01:30:39.547Z,1.70
2018-04-15T01:33:06.602Z,1.80
2018-04-15T01:35:33.646Z,1.70
2018-04-15T01:38:00.694Z,1.93
2018-04-15T01:40:27.682Z,2.00
2018-04-15T01:42:54.694Z,2.20
2018-04-15T01:45:21.741Z,2.20
2018-04-15T01:47:48.784Z,2.00
2018-04-15T01:50:15.833Z,2.10
2018-04-15T01:52:43.291Z,2.10
2018-04-15T01:55:10.345Z,2.10
2018-04-15T01:57:37.388Z,2.13
2018-04-15T02:00:04.437Z,2.40
2018-04-15T02:02:31.489Z,1.90
2018-04-15T02:04:59.045Z,2.10
2018-04-15T02:07:26.714Z,2.27
2018-04-15T02:09:53.961Z,2.40
2018-04-15T02:12:20.950Z,2.37
2018-04-15T02:14:48.782Z,2.10
2018-04-15T02:17:16.239Z,2.67
2018-04-15T02:19:43.284Z,2.30
2018-04-15T02:22:26.800Z,2.73
2018-04-15T02:25:12.285Z,2.90
2018-04-15T02:27:39.251Z,3.00
2018-04-15T02:30:06.294Z,2.57
2018-04-15T02:32:33.343Z,2.70
2018-04-15T02:35:00.397Z,2.90
2018-04-15T02:37:27.443Z,2.60
2018-04-15T02:39:54.496Z,2.70
2018-04-15T02:42:21.850Z,2.60
2018-04-15T02:44:49.405Z,3.13
2018-04-15T02:47:16.458Z,2.60
2018-04-15T02:49:44.379Z,3.10
2018-04-15T02:52:11.779Z,2.70
2018-04-15T02:54:38.833Z,2.50
2018-04-15T02:57:05.878Z,2.70
2018-04-15T02:59:32.955Z,2.30
2018-04-15T03:01:59.980Z,2.60
2018-04-15T03:04:27.333Z,2.47
2018-04-15T03:09:28.502Z,2.40
2018-04-15T03:11:55.542Z,2.40
2018-04-15T03:14:22.591Z,2.27
2018-04-15T03:16:49.740Z,2.27
2018-04-15T03:19:16.690Z,2.33
2018-04-15T03:21:45.892Z,2.60
2018-04-15T03:24:13.344Z,2.20
2018-04-15T03:26:40.396Z,2.40
2018-04-15T03:29:07.441Z,2.30
2018-04-15T03:31:34.590Z,2.83
2018-04-15T03:34:01.640Z,2.33
2018-04-15T03:36:28.697Z,2.50
2018-04-15T03:38:55.739Z,2.90
2018-04-15T03:41:23.917Z,2.80
2018-04-15T03:43:50.969Z,2.80
2018-04-15T03:46:18.023Z,2.83
2018-04-15T03:48:45.064Z,2.77
2018-04-15T03:51:12.106Z,2.80
2018-04-15T03:53:39.155Z,2.70
2018-04-15T03:56:06.209Z,2.90
2018-04-15T03:58:33.254Z,2.70
2018-04-15T04:01:00.303Z,3.00
2018-04-15T04:03:27.354Z,2.90
2018-04-15T04:05:54.704Z,3.00
2018-04-15T04:08:21.753Z,2.90
2018-04-15T04:10:48.809Z,3.13
2018-04-15T04:13:15.850Z,2.90
2018-04-15T04:15:42.899Z,2.93
2018-04-15T04:18:15.989Z,2.93
2018-04-15T04:20:48.977Z,3.20
2018-04-15T04:23:21.861Z,2.80
2018-04-15T04:25:48.917Z,3.10
2018-04-15T04:28:15.963Z,3.00
2018-04-15T04:30:43.008Z,3.20
2018-04-15T04:33:09.954Z,2.80
2018-04-15T04:35:37.004Z,3.03
2018-04-15T04:38:04.058Z,2.77
2018-04-15T04:40:30.937Z,3.20
2018-04-15T04:42:57.943Z,3.30
2018-04-15T04:45:24.992Z,3.37
2018-04-15T04:47:52.047Z,3.53
2018-04-15T04:50:19.090Z,22.33
2018-04-15T04:52:46.137Z,13.47
2018-04-15T04:55:13.192Z,8.07
2018-04-15T04:57:40.236Z,3.80
2018-04-15T05:00:07.239Z,6.77
2018-04-15T05:02:34.228Z,3.80
2018-04-15T05:05:01.279Z,3.73
2018-04-15T05:07:28.271Z,5.00
2018-04-15T05:09:55.580Z,4.13
2018-04-15T05:12:22.635Z,3.30
2018-04-15T05:14:49.678Z,7.80
2018-04-15T05:17:17.032Z,3.80
2018-04-15T05:19:44.088Z,3.93
2018-04-15T05:22:11.132Z,3.63
2018-04-15T05:24:38.282Z,3.90
2018-04-15T05:27:06.154Z,4.17
2018-04-15T05:29:33.139Z,3.90
2018-04-15T05:32:01.169Z,4.10
2018-04-15T05:34:28.221Z,4.17
2018-04-15T05:36:55.265Z,3.60
2018-04-15T05:39:22.216Z,3.67
2018-04-15T05:41:49.259Z,4.00
2018-04-15T05:44:16.309Z,3.60
2018-04-15T05:46:43.362Z,3.50
2018-04-15T05:49:10.406Z,3.90
2018-04-15T05:51:37.454Z,4.40
2018-04-15T05:54:04.509Z,3.47
2018-04-15T05:56:31.555Z,4.03
2018-04-15T05:58:58.605Z,3.83
2018-04-15T06:01:25.856Z,3.83
2018-04-15T06:03:53.518Z,4.00
2018-04-15T06:06:20.979Z,3.50
2018-04-15T06:08:47.994Z,3.30
2018-04-15T06:11:15.071Z,6.47
2018-04-15T06:13:42.333Z,4.00
2018-04-15T06:16:09.385Z,4.30
2018-04-15T06:18:36.427Z,3.50
2018-04-15T06:21:04.845Z,4.53
2018-04-15T06:23:31.854Z,6.27
2018-04-15T06:25:58.904Z,3.83
2018-04-15T06:28:25.948Z,4.77
2018-04-15T06:30:53.000Z,3.80
2018-04-15T06:33:20.002Z,4.13
2018-04-15T06:35:46.995Z,5.23
2018-04-15T06:38:14.040Z,7.70
2018-04-15T06:40:41.088Z,8.57
2018-04-15T06:43:08.141Z,6.07
2018-04-15T06:45:35.184Z,12.00
2018-04-15T06:48:02.442Z,10.33
2018-04-15T06:50:29.385Z,7.07
2018-04-15T06:52:57.149Z,11.70
2018-04-15T06:55:24.203Z,6.17
2018-04-15T06:57:51.247Z,10.60
2018-04-15T07:00:19.269Z,5.27
2018-04-15T07:02:46.367Z,4.93
2018-04-15T07:05:13.419Z,5.43
2018-04-15T07:07:41.025Z,5.20
2018-04-15T07:10:08.741Z,4.67
2018-04-15T07:12:41.831Z,5.33
2018-04-15T07:15:08.881Z,4.20
2018-04-15T07:17:35.939Z,4.90
2018-04-15T07:20:03.393Z,7.37
2018-04-15T07:22:30.436Z,8.83
2018-04-15T07:24:57.842Z,6.07
2018-04-15T07:27:26.784Z,6.20
2018-04-15T07:29:53.840Z,4.83
2018-04-15T07:32:20.883Z,6.70
2018-04-15T07:34:47.834Z,5.50
2018-04-15T07:37:14.775Z,5.30
2018-04-15T07:39:41.828Z,5.83
2018-04-15T07:42:09.691Z,5.53
2018-04-15T07:44:36.745Z,5.97
2018-04-15T07:47:03.895Z,5.60
2018-04-15T07:49:31.861Z,5.33
2018-04-15T07:51:59.218Z,5.90
2018-04-15T07:54:26.930Z,6.47
2018-04-15T07:56:54.239Z,5.53
2018-04-15T07:59:21.285Z,6.20
2018-04-15T08:01:48.338Z,6.40
2018-04-15T08:04:16.610Z,5.50
2018-04-15T08:06:43.659Z,8.70
2018-04-15T08:09:10.715Z,6.40
2018-04-15T08:11:37.655Z,5.87
2018-04-15T08:14:05.258Z,6.30
2018-04-15T08:16:33.088Z,6.07
2018-04-15T08:19:00.132Z,6.10
2018-04-15T08:21:27.179Z,5.43
2018-04-15T08:23:54.990Z,5.37
2018-04-15T08:26:21.999Z,6.03
2018-04-15T08:28:49.042Z,5.83
2018-04-15T08:31:16.193Z,5.50
2018-04-15T08:33:43.242Z,5.87
2018-04-15T08:36:11.524Z,4.77
2018-04-15T08:38:38.882Z,5.73
2018-04-15T08:41:07.202Z,6.07
2018-04-15T08:43:34.205Z,5.17
2018-04-15T08:46:01.248Z,6.00
2018-04-15T08:48:28.246Z,5.90
2018-04-15T08:50:55.197Z,5.23
2018-04-15T08:53:22.197Z,5.40
2018-04-15T08:55:49.239Z,6.13
2018-04-15T08:58:17.313Z,5.90
2018-04-15T09:00:44.364Z,5.57
2018-04-15T09:03:12.029Z,4.67
2018-04-15T09:05:39.071Z,5.33
2018-04-15T09:08:07.041Z,5.93
2018-04-15T09:10:34.094Z,5.40
2018-04-15T09:13:01.081Z,6.10
2018-04-15T09:15:28.090Z,5.43
2018-04-15T09:17:55.132Z,5.37
2018-04-15T09:20:23.102Z,5.63
2018-04-15T09:22:50.253Z,6.87
2018-04-15T09:25:17.307Z,5.97
2018-04-15T09:27:44.351Z,5.20
2018-04-15T09:30:11.323Z,5.63
2018-04-15T09:32:49.789Z,5.93
2018-04-15T09:35:33.131Z,6.00
2018-04-15T09:38:00.403Z,5.30
2018-04-15T09:40:27.389Z,6.63
2018-04-15T09:42:56.031Z,6.37
2018-04-15T09:45:23.084Z,6.00
2018-04-15T09:47:50.127Z,5.83
2018-04-15T09:50:17.175Z,5.10
2018-04-15T09:52:45.095Z,5.03
2018-04-15T09:55:13.014Z,5.53
2018-04-15T09:57:40.069Z,5.60
2018-04-15T10:00:07.110Z,6.23
2018-04-15T10:02:34.466Z,4.73
2018-04-15T10:05:01.521Z,5.80
2018-04-15T10:07:28.564Z,4.70
2018-04-15T10:09:56.130Z,5.17
2018-04-15T10:12:23.123Z,5.23
2018-04-15T10:14:50.938Z,5.67
2018-04-15T10:17:20.657Z,6.50
2018-04-15T10:19:47.647Z,6.07
2018-04-15T10:22:14.747Z,5.80
2018-04-15T10:24:41.800Z,6.03
2018-04-15T10:27:08.843Z,5.20
2018-04-15T10:29:35.893Z,6.00
2018-04-15T10:32:02.946Z,6.70
2018-04-15T10:34:30.102Z,6.57
2018-04-15T10:36:59.243Z,6.40
2018-04-15T10:39:26.243Z,6.00
2018-04-15T10:41:53.287Z,5.93
2018-04-15T10:44:20.481Z,6.47
2018-04-15T10:46:48.312Z,6.00
2018-04-15T10:49:15.561Z,7.07
2018-04-15T10:51:42.614Z,6.45
2018-04-15T10:54:09.661Z,6.45
2018-04-15T10:56:36.710Z,6.60
2018-04-15T10:59:03.763Z,6.03
2018-04-15T11:01:30.802Z,6.03
2018-04-15T11:03:58.984Z,6.30
2018-04-15T11:09:24.763Z,6.15
2018-04-15T11:11:51.781Z,6.93
2018-04-15T11:14:18.813Z,7.70
2018-04-15T11:16:45.863Z,6.15
2018-04-15T11:19:12.918Z,6.20
2018-04-15T11:21:39.959Z,6.03
2018-04-15T11:24:07.010Z,5.68
2018-04-15T11:26:34.061Z,6.60
2018-04-15T11:29:01.136Z,5.62
2018-04-15T11:31:28.979Z,6.05
2018-04-15T11:33:56.021Z,5.77
2018-04-15T11:36:22.974Z,6.35
2018-04-15T11:38:49.914Z,6.40
2018-04-15T11:41:16.966Z,6.15
2018-04-15T11:43:44.937Z,6.72
2018-04-15T11:46:11.886Z,5.90
2018-04-15T11:48:39.651Z,6.12
2018-04-15T11:51:06.700Z,5.62
2018-04-15T11:53:33.745Z,5.93
2018-04-15T11:56:01.718Z,5.20
2018-04-15T11:58:28.774Z,5.40
2018-04-15T12:00:55.911Z,6.12
2018-04-15T12:03:23.830Z,5.57
2018-04-15T12:05:50.827Z,5.72
2018-04-15T12:08:17.877Z,5.97
2018-04-15T12:10:45.641Z,6.32
2018-04-15T12:13:12.696Z,5.97
2018-04-15T12:15:39.739Z,5.43
2018-04-15T12:18:07.920Z,5.18
2018-04-15T12:20:34.963Z,6.00
2018-04-15T12:23:02.114Z,6.05
2018-04-15T12:25:29.373Z,6.07
2018-04-15T12:27:56.417Z,6.03
2018-04-15T12:30:23.465Z,6.43
2018-04-15T12:32:50.526Z,5.68
2018-04-15T12:35:17.506Z,6.70
2018-04-15T12:37:44.514Z,5.55
2018-04-15T12:40:11.561Z,5.70
2018-04-15T12:42:38.606Z,5.32
2018-04-15T12:45:05.660Z,6.30
2018-04-15T12:47:32.704Z,6.18
2018-04-15T12:49:59.854Z,6.75
2018-04-15T12:52:27.005Z,6.20
2018-04-15T12:54:54.053Z,6.65
2018-04-15T12:57:21.205Z,5.87
2018-04-15T12:59:48.195Z,5.72
2018-04-15T13:02:15.410Z,6.65
2018-04-15T13:04:42.453Z,6.40
2018-04-15T13:07:09.450Z,5.93
2018-04-15T13:09:36.451Z,6.35
2018-04-15T13:12:03.496Z,6.68
2018-04-15T13:14:31.671Z,5.90
2018-04-15T13:16:58.766Z,6.37
2018-04-15T13:19:25.773Z,6.53
2018-04-15T13:21:52.817Z,6.65
2018-04-15T13:24:19.866Z,6.97
2018-04-15T13:26:46.917Z,6.78
2018-04-15T13:29:13.962Z,7.10
2018-04-15T13:31:40.913Z,7.45
2018-04-15T13:34:07.958Z,6.90
2018-04-15T13:36:35.005Z,6.75
2018-04-15T13:39:02.156Z,6.95
2018-04-15T13:41:29.307Z,7.15
2018-04-15T13:43:56.360Z,7.07
2018-04-15T13:46:23.405Z,7.07
2018-04-15T13:48:50.453Z,6.72
2018-04-15T13:51:17.507Z,7.40
2018-04-15T13:53:45.694Z,6.87
2018-04-15T13:56:13.752Z,6.90
2018-04-15T13:58:40.803Z,7.30
2018-04-15T14:01:08.154Z,8.05
2018-04-15T14:03:35.202Z,7.28
2018-04-15T14:06:02.256Z,7.28
2018-04-15T14:08:29.914Z,7.70
2018-04-15T14:10:56.963Z,6.90
2018-04-15T14:13:27.718Z,8.30
2018-04-15T14:15:56.930Z,7.33
2018-04-15T14:18:23.975Z,6.60
2018-04-15T14:20:50.999Z,6.60
2018-04-15T14:23:18.043Z,6.87
2018-04-15T14:25:45.091Z,6.40
2018-04-15T14:28:12.243Z,7.27
2018-04-15T14:30:39.295Z,6.35
2018-04-15T14:33:06.341Z,6.43
2018-04-15T14:35:33.643Z,7.13
2018-04-15T14:38:00.751Z,6.70
2018-04-15T14:40:29.076Z,6.53
2018-04-15T14:42:56.075Z,6.50
2018-04-15T14:45:23.223Z,7.13
2018-04-15T14:47:50.275Z,7.53
2018-04-15T14:50:17.322Z,8.55
2018-04-15T14:52:45.391Z,7.80
2018-04-15T14:55:12.439Z,8.70
2018-04-15T14:57:40.000Z,9.60
2018-04-15T15:00:06.956Z,7.63
2018-04-15T15:02:33.994Z,8.20
2018-04-15T15:05:01.044Z,7.33
2018-04-15T15:07:29.020Z,8.33
2018-04-15T15:09:56.171Z,7.60
2018-04-15T15:12:24.242Z,7.47
2018-04-15T15:14:51.395Z,7.53
2018-04-15T15:17:18.438Z,7.97
2018-04-15T15:19:46.223Z,7.50
2018-04-15T15:22:13.250Z,6.70
2018-04-15T15:24:40.708Z,6.73
2018-04-15T15:27:08.168Z,7.57
2018-04-15T15:29:36.239Z,7.57
2018-04-15T15:32:03.295Z,7.57
2018-04-15T15:34:32.487Z,7.50
2018-04-15T15:37:03.126Z,7.47
2018-04-15T15:39:30.280Z,7.17
2018-04-15T15:41:57.318Z,6.87
2018-04-15T15:44:24.785Z,6.80
2018-04-15T15:46:53.363Z,7.83
2018-04-15T15:49:20.421Z,7.53
2018-04-15T15:51:47.460Z,7.47
2018-04-15T15:54:14.861Z,7.60
2018-04-15T15:57:00.517Z,7.03
2018-04-15T15:59:27.524Z,8.43
2018-04-15T16:01:55.267Z,7.77
2018-04-15T16:04:22.368Z,8.30
2018-04-15T16:06:53.100Z,8.27
2018-04-15T16:09:20.147Z,8.32
2018-04-15T16:11:47.202Z,7.97
2018-04-15T16:14:14.244Z,7.20
2018-04-15T16:16:42.214Z,7.25
2018-04-15T17:05:53.299Z,8.50
2018-04-15T17:08:20.522Z,8.15
2018-04-15T17:10:47.907Z,8.65
2018-04-15T17:13:15.065Z,7.75
2018-04-15T17:15:42.105Z,8.00
2018-04-15T17:18:09.501Z,7.43
2018-04-15T17:20:36.512Z,8.32
2018-04-15T17:23:03.552Z,8.38
2018-04-15T17:25:31.195Z,8.27
2018-04-15T17:27:58.317Z,9.32
2018-04-15T17:30:25.190Z,8.95
2018-04-15T17:32:52.269Z,8.35
2018-04-15T17:35:19.308Z,9.40
2018-04-15T17:37:48.762Z,9.20
2018-04-15T17:40:15.714Z,9.07
2018-04-15T17:42:53.525Z,9.35
2018-04-15T17:45:21.842Z,8.60
2018-04-15T17:47:48.785Z,11.43
2018-04-15T17:50:15.785Z,11.35
2018-04-15T17:52:42.881Z,9.55
2018-04-15T17:55:09.933Z,10.15
2018-04-15T17:57:38.321Z,12.23
2018-04-15T18:00:05.579Z,14.20
2018-04-15T18:02:37.226Z,13.20
2018-04-15T18:05:04.483Z,20.12
2018-04-15T18:07:32.752Z,14.60
2018-04-15T18:10:00.111Z,12.68
2018-04-15T18:12:27.155Z,12.50
2018-04-15T18:14:54.155Z,12.77
2018-04-15T18:17:22.331Z,13.17
2018-04-15T18:19:50.760Z,12.55
2018-04-15T18:22:17.909Z,16.73
2018-04-15T18:24:44.956Z,11.63
2018-04-15T18:27:13.338Z,23.30
2018-04-15T18:29:41.926Z,64.55
2018-04-15T18:32:09.585Z,10.93
2018-04-15T18:34:36.638Z,11.50
2018-04-15T18:37:03.995Z,10.93
2018-04-15T18:39:31.453Z,19.03
2018-04-15T18:41:58.806Z,26.00
2018-04-15T18:44:25.756Z,10.43
2018-04-15T18:46:54.443Z,14.13
2018-04-15T18:49:21.593Z,12.30
2018-04-15T18:51:48.841Z,9.93
2018-04-15T18:54:38.188Z,8.80
2018-04-15T18:57:25.907Z,9.70
2018-04-15T19:00:12.133Z,9.03
2018-04-15T19:02:58.672Z,8.47
2018-04-15T19:05:45.457Z,8.30
2018-04-15T19:08:26.698Z,8.80
2018-04-15T19:11:20.318Z,8.60
2018-04-15T19:13:48.430Z,8.57
2018-04-15T19:16:15.955Z,8.93
2018-04-15T19:18:43.255Z,9.63
2018-04-15T19:21:10.255Z,8.87
2018-04-15T19:23:37.299Z,8.37
2018-04-15T19:26:04.349Z,8.20
2018-04-15T19:28:32.470Z,8.80
2018-04-15T19:30:59.475Z,8.70
2018-04-15T19:33:26.552Z,8.10
2018-04-15T19:35:54.488Z,8.10
2018-04-15T19:38:21.545Z,7.80
2018-04-15T19:40:48.693Z,7.80
2018-04-15T19:43:17.073Z,8.00
2018-04-15T19:45:44.118Z,8.40
2018-04-15T19:48:11.574Z,8.53
2018-04-15T19:50:40.336Z,9.37
2018-04-15T19:53:08.171Z,9.03
2018-04-15T19:55:35.999Z,9.23
2018-04-15T19:58:03.561Z,8.00
2018-04-15T20:00:30.917Z,8.67
2018-04-15T20:02:59.201Z,9.03
2018-04-15T20:05:27.327Z,8.60
2018-04-15T20:07:55.510Z,8.43
2018-04-15T20:10:23.685Z,13.00
2018-04-15T20:12:51.123Z,8.47
2018-04-15T20:15:18.945Z,9.13
2018-04-15T20:17:46.739Z,8.50
2018-04-15T20:20:14.879Z,9.70
2018-04-15T20:23:00.798Z,9.70
2018-04-15T20:25:27.922Z,8.83
2018-04-15T20:27:55.590Z,9.10
2018-04-15T20:30:34.642Z,7.63
2018-04-15T20:33:01.665Z,8.17
2018-04-15T20:35:28.608Z,8.07
2018-04-15T20:37:56.373Z,9.03
2018-04-15T20:40:24.182Z,8.07
2018-04-15T20:42:51.188Z,7.93
2018-04-15T20:45:18.645Z,9.30
2018-04-15T20:47:47.027Z,9.17
2018-04-15T20:50:24.982Z,8.53
2018-04-15T20:52:51.984Z,8.07
2018-04-15T20:55:19.028Z,8.47
2018-04-15T20:57:46.593Z,8.27
2018-04-15T21:00:13.636Z,8.17
2018-04-15T21:02:41.605Z,8.60
2018-04-15T21:05:08.660Z,9.77
2018-04-15T21:07:36.435Z,8.53
2018-04-15T21:10:03.775Z,8.90
2018-04-15T21:12:31.746Z,8.93
2018-04-15T21:14:58.800Z,8.70
2018-04-15T21:17:25.740Z,8.70
2018-04-15T21:19:52.843Z,9.07
2018-04-15T21:22:19.946Z,8.00
2018-04-15T21:24:46.988Z,9.50
2018-04-15T21:27:14.038Z,9.23
2018-04-15T21:29:41.092Z,9.13
2018-04-15T21:32:09.265Z,9.00
2018-04-15T21:34:36.318Z,9.67
2018-04-15T21:37:03.359Z,9.20
2018-04-15T21:39:30.407Z,9.20
2018-04-15T21:41:58.381Z,9.83
2018-04-15T21:44:25.382Z,10.20
2018-04-15T21:46:52.575Z,11.03
2018-04-15T21:49:19.625Z,10.80
2018-04-15T21:51:48.671Z,9.87
2018-04-15T21:54:16.204Z,9.97
2018-04-15T21:56:43.331Z,10.07
2018-04-15T21:59:10.481Z,10.97
2018-04-15T22:01:37.486Z,10.77
2018-04-15T22:04:04.477Z,11.70
2018-04-15T22:06:31.524Z,10.67
2018-04-15T22:08:58.580Z,11.63
2018-04-15T22:11:31.460Z,11.27
2018-04-15T22:13:58.508Z,11.40
2018-04-15T22:16:25.507Z,12.10
2018-04-15T22:18:52.504Z,11.27
2018-04-15T22:21:21.696Z,11.67
2018-04-15T22:23:49.569Z,10.90
2018-04-15T22:26:16.623Z,12.07
2018-04-15T22:28:43.666Z,11.37
2018-04-15T22:31:10.715Z,12.07
2018-04-15T22:33:37.769Z,11.03
2018-04-15T22:36:04.815Z,11.47
2018-04-15T22:38:31.863Z,11.23
2018-04-15T22:40:58.914Z,11.70
2018-04-15T22:43:25.866Z,11.13
2018-04-15T22:45:53.109Z,11.80
2018-04-15T22:48:20.261Z,11.73
2018-04-15T22:50:47.535Z,12.00
2018-04-15T22:53:15.199Z,11.40
2018-04-15T22:55:42.331Z,12.13
2018-04-15T22:58:09.380Z,12.67
2018-04-15T23:00:36.432Z,11.93
2018-04-15T23:03:03.477Z,12.57
2018-04-15T23:05:30.526Z,12.87
2018-04-15T23:07:57.576Z,13.10
2018-04-15T23:10:24.620Z,12.53
2018-04-15T23:12:51.667Z,11.80
2018-04-15T23:15:19.644Z,12.50
2018-04-15T23:17:47.198Z,12.27
2018-04-15T23:20:14.192Z,10.93
2018-04-15T23:22:41.193Z,11.80
2018-04-15T23:25:08.248Z,11.53
2018-04-15T23:27:36.726Z,12.23
2018-04-15T23:30:04.291Z,12.83
2018-04-15T23:32:32.050Z,11.80
2018-04-15T23:34:59.508Z,12.60
2018-04-15T23:37:27.274Z,12.33
2018-04-15T23:39:54.324Z,12.77
2018-04-15T23:42:21.781Z,12.23
2018-04-15T23:44:48.834Z,11.83
2018-04-15T23:47:15.880Z,11.20
2018-04-15T23:49:42.927Z,11.73
2018-04-15T23:52:09.980Z,12.40
2018-04-15T23:54:37.024Z,12.47
2018-04-15T23:57:04.381Z,11.87
2018-04-15T23:59:31.435Z,11.53
